Time;durP1;ratioP1;P1;durP2;ratioP2;P2;SDS_P1;SDS_P2;PMS_P1;PMS_P2;Temp;Humidity;BMP_temperature;BMP_pressure;BME280_temperature;BME280_humidity;BME280_pressure;Samples;Min_cycle;Max_cycle;Signal;HPM_P1;HPM_P2
2023/09/23 00:02:21;;;;;;;;;;;;;;;20.13;79.76;99328.03;5031596;28;19909;-74
2023/09/23 00:04:46;;;;;;;;;;;;;;;19.87;80.95;99330.81;5031111;28;20369;-74
2023/09/23 00:07:12;;;;;;;;;;;;;;;20.03;80.63;99344.69;5035236;28;19999;-74
2023/09/23 00:09:37;;;;;;;;;;;;;;;19.90;81.60;99343.38;5034150;28;19909;-74
2023/09/23 00:12:03;;;;;;;;;;;;;;;19.91;82.11;99342.19;5035458;28;19952;-74
2023/09/23 00:14:28;;;;;;;;;;;;;;;20.21;80.73;99349.56;5035211;28;19913;-74
2023/09/23 00:16:54;;;;;;;;;;;;;;;20.18;80.32;99344.69;5035372;28;19967;-74
2023/09/23 00:19:19;;;;;;;;;;;;;;;20.26;79.84;99348.34;5035268;28;20011;-74
2023/09/23 00:21:45;;;;;;;;;;;;;;;20.19;80.10;99352.00;5032723;28;19975;-74
2023/09/23 00:24:10;;;;;;;;;;;;;;;20.13;80.06;99354.41;5033587;28;20356;-74
2023/09/23 00:26:36;;;;;;;;;;;;;;;20.04;79.54;99360.50;5035234;28;19909;-74
2023/09/23 00:29:01;;;;;;;;;;;;;;;20.04;79.16;99368.19;5035028;28;19909;-74
2023/09/23 00:31:29;;;;;;;;;;;;;;;19.91;79.51;99350.69;5033831;28;20027;-74
2023/09/23 00:33:54;;;;;;;;;;;;;;;19.58;81.09;99363.97;5035007;28;19909;-74
2023/09/23 00:36:22;;;;;;;;;;;;;;;19.68;80.96;99351.84;5034979;28;19932;-74
2023/09/23 00:38:47;;;;;;;;;;;;;;;19.89;79.69;99344.59;5033418;28;20073;-74
2023/09/23 00:41:13;;;;;;;;;;;;;;;19.98;78.95;99353.56;5033628;28;20523;-74
2023/09/23 00:43:38;;;;;;;;;;;;;;;20.14;78.45;99344.69;5034902;28;20002;-74
2023/09/23 00:46:05;;;;;;;;;;;;;;;20.51;76.73;99348.34;5034809;28;19916;-75
2023/09/23 00:48:36;;;;;;;;;;;;;;;20.62;75.73;99351.97;5033538;28;19912;-74
2023/09/23 00:51:03;;;;;;;;;;;;;;;20.67;75.36;99352.81;5034645;28;19963;-74
2023/09/23 00:53:29;;;;;;;;;;;;;;;20.39;76.86;99360.09;5033940;28;19920;-74
2023/09/23 00:55:55;;;;;;;;;;;;;;;19.92;78.69;99363.69;5033269;28;19917;-74
2023/09/23 00:58:21;;;;;;;;;;;;;;;19.53;81.07;99368.00;5034592;28;20388;-74
2023/09/23 01:00:48;;;;;;;;;;;;;;;19.96;79.29;99356.00;5033204;28;19978;-74
2023/09/23 01:03:13;;;;;;;;;;;;;;;19.55;81.30;99361.91;5033225;28;19909;-74
2023/09/23 01:05:40;;;;;;;;;;;;;;;19.33;83.42;99356.97;5034394;28;19913;-74
2023/09/23 01:08:07;;;;;;;;;;;;;;;19.41;83.27;99366.31;5032960;28;19958;-74
2023/09/23 01:10:32;;;;;;;;;;;;;;;19.41;83.57;99363.47;5034282;28;19913;-74
2023/09/23 01:12:58;;;;;;;;;;;;;;;19.42;83.72;99362.25;5031780;28;19909;-74
2023/09/23 01:15:25;;;;;;;;;;;;;;;19.53;83.51;99355.84;5033499;28;19995;-74
2023/09/23 01:17:53;;;;;;;;;;;;;;;19.44;83.90;99359.03;5034193;28;20430;-74
2023/09/23 01:20:20;;;;;;;;;;;;;;;19.46;84.13;99356.63;5034213;28;20286;-74
2023/09/23 01:22:47;;;;;;;;;;;;;;;19.63;82.96;99361.56;5032498;28;19909;-74
2023/09/23 01:25:13;;;;;;;;;;;;;;;19.34;84.16;99358.59;5032001;28;19913;-74
2023/09/23 01:27:39;;;;;;;;;;;;;;;19.21;85.43;99363.81;5032748;28;19916;-74
2023/09/23 01:30:05;;;;;;;;;;;;;;;19.22;85.72;99371.09;5033964;28;19909;-74
2023/09/23 01:32:42;;;;;;;;;;;;;;;19.12;85.95;99362.50;5032601;28;19909;-74
2023/09/23 01:35:09;;;;;;;;;;;;;;;19.03;86.45;99365.72;5033806;28;19964;-74
2023/09/23 01:37:34;;;;;;;;;;;;;;;18.94;86.57;99361.19;5033353;28;19917;-74
2023/09/23 01:40:00;;;;;;;;;;;;;;;18.93;86.81;99353.88;5032207;28;19932;-74
2023/09/23 01:42:25;;;;;;;;;;;;;;;18.96;87.38;99365.66;5032555;28;19909;-74
2023/09/23 01:44:52;;;;;;;;;;;;;;;19.22;85.66;99351.25;5033729;28;19967;-74
2023/09/23 01:47:20;;;;;;;;;;;;;;;19.29;84.71;99355.31;5032470;28;19945;-74
2023/09/23 01:49:45;;;;;;;;;;;;;;;19.33;84.30;99347.66;5032235;28;19920;-74
2023/09/23 01:52:11;;;;;;;;;;;;;;;19.47;83.31;99355.41;5031157;28;21673;-74
2023/09/23 01:54:36;;;;;;;;;;;;;;;19.38;82.96;99361.44;5033542;28;19917;-74
2023/09/23 01:57:02;;;;;;;;;;;;;;;19.08;84.30;99356.84;5033453;28;19913;-74
2023/09/23 01:59:28;;;;;;;;;;;;;;;18.96;85.45;99351.47;5033522;28;19957;-74
2023/09/23 02:01:53;;;;;;;;;;;;;;;18.75;86.65;99344.47;5033254;28;19909;-74
2023/09/23 02:04:18;;;;;;;;;;;;;;;18.68;87.38;99348.06;5033315;28;20370;-74
2023/09/23 02:06:44;;;;;;;;;;;;;;;18.87;86.46;99346.97;5031752;28;19921;-74
2023/09/23 02:09:09;;;;;;;;;;;;;;;19.03;85.43;99351.53;5033299;28;20381;-74
2023/09/23 02:11:38;;;;;;;;;;;;;;;18.92;85.38;99349.41;5033220;28;19916;-74
2023/09/23 02:14:06;;;;;;;;;;;;;;;19.03;85.17;99355.19;5033094;28;20356;-75
2023/09/23 02:16:32;;;;;;;;;;;;;;;19.35;83.70;99359.41;5031784;28;19909;-74
2023/09/23 02:18:58;;;;;;;;;;;;;;;18.84;85.09;99361.94;5033075;28;19916;-74
2023/09/23 02:21:23;;;;;;;;;;;;;;;18.89;84.80;99358.72;5032834;28;19909;-74
2023/09/23 02:23:49;;;;;;;;;;;;;;;19.00;84.13;99358.00;5031733;28;19913;-74
2023/09/23 02:26:14;;;;;;;;;;;;;;;19.37;82.34;99354.16;5032868;28;19963;-74
2023/09/23 02:28:40;;;;;;;;;;;;;;;19.49;81.20;99355.84;5030615;28;19913;-74
2023/09/23 02:31:05;;;;;;;;;;;;;;;19.58;80.28;99358.31;5032762;28;20325;-74
2023/09/23 02:33:31;;;;;;;;;;;;;;;19.24;82.04;99356.50;5032866;28;20039;-74
2023/09/23 02:35:59;;;;;;;;;;;;;;;18.92;83.62;99357.91;5032624;28;19913;-74
2023/09/23 02:38:25;;;;;;;;;;;;;;;18.80;84.98;99355.41;5031156;28;19916;-74
2023/09/23 02:40:50;;;;;;;;;;;;;;;19.22;82.74;99371.09;5032456;28;19916;-74
2023/09/23 02:43:19;;;;;;;;;;;;;;;19.16;82.37;99369.84;5032649;28;19982;-74
2023/09/23 02:45:50;;;;;;;;;;;;;;;19.22;82.38;99375.94;5031251;28;19963;-74
2023/09/23 02:48:16;;;;;;;;;;;;;;;18.87;84.90;99371.66;5031330;28;19998;-74
2023/09/23 02:50:41;;;;;;;;;;;;;;;18.91;85.66;99370.47;5032383;28;19908;-74
2023/09/23 02:53:07;;;;;;;;;;;;;;;18.75;86.91;99369.97;5032167;28;20007;-74
2023/09/23 02:55:32;;;;;;;;;;;;;;;18.99;86.06;99379.03;5029885;28;19924;-74
2023/09/23 02:57:57;;;;;;;;;;;;;;;19.15;84.93;99373.09;5032318;28;19908;-74
2023/09/23 03:00:33;;;;;;;;;;;;;;;19.32;83.60;99368.72;5109680;27;20297;-75
2023/09/23 03:03:01;;;;;;;;;;;;;;;19.16;83.64;99369.84;5109717;28;19916;-75
2023/09/23 03:05:29;;;;;;;;;;;;;;;19.05;83.99;99371.78;5109510;28;19918;-75
2023/09/23 03:07:57;;;;;;;;;;;;;;;19.17;83.37;99373.50;5109348;28;19912;-75
2023/09/23 03:10:31;;;;;;;;;;;;;;;19.13;82.94;99378.34;5109528;28;20366;-75
2023/09/23 03:13:03;;;;;;;;;;;;;;;18.85;83.77;99368.41;5108113;28;20479;-75
2023/09/23 03:15:44;;;;;;;;;;;;;;;18.63;85.25;99369.06;5108232;28;20361;-75
2023/09/23 03:18:09;;;;;;;;;;;;;;;18.28;86.77;99372.38;5109279;28;19999;-75
2023/09/23 03:20:36;;;;;;;;;;;;;;;18.36;86.81;99374.91;5107160;28;19955;-75
2023/09/23 03:23:03;;;;;;;;;;;;;;;18.56;86.09;99380.31;5094711;28;20492;-75
2023/09/23 03:25:30;;;;;;;;;;;;;;;18.56;85.80;99385.19;5121737;28;19918;-75
2023/09/23 03:27:55;;;;;;;;;;;;;;;18.56;86.09;99385.97;5088691;28;19968;-75
2023/09/23 03:30:20;;;;;;;;;;;;;;;18.60;86.16;99384.00;5103245;28;20003;-75
2023/09/23 03:32:46;;;;;;;;;;;;;;;18.78;85.25;99398.31;5108933;28;20041;-75
2023/09/23 03:35:22;;;;;;;;;;;;;;;18.73;84.85;99403.53;5109137;28;20404;-75
2023/09/23 03:37:49;;;;;;;;;;;;;;;18.70;85.07;99398.63;5091627;28;19916;-75
2023/09/23 03:40:15;;;;;;;;;;;;;;;18.70;85.22;99401.47;5088564;28;19917;-75
2023/09/23 03:42:41;;;;;;;;;;;;;;;18.70;84.99;99412.78;5088501;28;20368;-75
2023/09/23 03:45:08;;;;;;;;;;;;;;;18.51;86.20;99406.19;5093353;28;19915;-75
2023/09/23 03:47:35;;;;;;;;;;;;;;;18.29;87.62;99405.97;5107389;28;19919;-75
2023/09/23 03:50:00;;;;;;;;;;;;;;;18.23;88.14;99402.69;5108871;28;19934;-75
2023/09/23 03:52:26;;;;;;;;;;;;;;;18.01;89.80;99406.47;5106979;28;19916;-75
2023/09/23 03:54:52;;;;;;;;;;;;;;;18.19;89.25;99407.50;5108667;28;19999;-75
2023/09/23 03:57:18;;;;;;;;;;;;;;;18.18;89.28;99410.72;5108496;28;19912;-75
2023/09/23 03:59:43;;;;;;;;;;;;;;;18.21;88.83;99407.09;5108404;28;20314;-75
2023/09/23 04:02:08;;;;;;;;;;;;;;;18.12;89.30;99406.63;5107122;28;20018;-75
2023/09/23 04:04:37;;;;;;;;;;;;;;;17.92;90.68;99409.59;5108479;28;19912;-75
2023/09/23 04:07:03;;;;;;;;;;;;;;;18.05;89.74;99413.03;5092517;28;20018;-75
2023/09/23 04:09:28;;;;;;;;;;;;;;;18.13;89.47;99414.72;5104891;28;19916;-75
2023/09/23 04:11:53;;;;;;;;;;;;;;;18.17;88.88;99409.91;5094603;28;20005;-75
2023/09/23 04:14:20;;;;;;;;;;;;;;;18.13;89.03;99428.06;5094792;28;20390;-75
2023/09/23 04:16:45;;;;;;;;;;;;;;;18.16;88.65;99428.09;5094529;28;19912;-75
2023/09/23 04:19:10;;;;;;;;;;;;;;;18.14;88.53;99427.66;5091644;28;19920;-75
2023/09/23 04:21:36;;;;;;;;;;;;;;;18.12;88.58;99417.94;5090806;28;19920;-70
2023/09/23 04:24:01;;;;;;;;;;;;;;;18.03;89.25;99423.88;5094608;28;19916;-70
2023/09/23 04:26:26;;;;;;;;;;;;;;;18.22;88.48;99428.53;5092221;28;20352;-69
2023/09/23 04:28:52;;;;;;;;;;;;;;;18.00;89.66;99433.13;5094397;28;19969;-73
2023/09/23 04:31:18;;;;;;;;;;;;;;;17.77;91.04;99440.56;5094490;28;19912;-72
2023/09/23 04:33:44;;;;;;;;;;;;;;;17.73;91.95;99430.38;5093057;28;19912;-70
2023/09/23 04:36:11;;;;;;;;;;;;;;;17.79;91.75;99435.31;5081263;28;19923;-72
2023/09/23 04:38:36;;;;;;;;;;;;;;;17.99;90.78;99440.81;5073924;28;19919;-71
2023/09/23 04:41:02;;;;;;;;;;;;;;;18.33;89.26;99440.78;5077248;28;19920;-70
2023/09/23 04:43:30;;;;;;;;;;;;;;;18.46;88.25;99444.16;5092498;28;19966;-70
2023/09/23 04:45:56;;;;;;;;;;;;;;;18.40;88.03;99445.69;5088377;28;19920;-68
2023/09/23 04:48:21;;;;;;;;;;;;;;;18.44;87.71;99446.56;5091418;28;19919;-68
2023/09/23 04:53:56;;;;;;;;;;;;;;;18.10;89.90;99446.63;5324453;22;19930;-82
2023/09/23 04:56:46;;;;;;;;;;;;;;;18.17;89.16;99460.03;5072257;28;19912;-83
2023/09/23 04:59:12;;;;;;;;;;;;;;;18.47;88.33;99451.44;5075292;28;19927;-83
2023/09/23 05:01:38;;;;;;;;;;;;;;;18.66;87.11;99452.44;5080435;28;20380;-82
2023/09/23 05:04:08;;;;;;;;;;;;;;;18.73;86.44;99457.38;5078910;28;19916;-83
2023/09/23 05:06:36;;;;;;;;;;;;;;;19.01;85.79;99456.00;5078881;28;20369;-84
2023/09/23 05:09:01;;;;;;;;;;;;;;;18.83;86.07;99465.16;5077523;28;19916;-85
2023/09/23 05:11:27;;;;;;;;;;;;;;;18.70;87.57;99470.28;5079178;28;19916;-83
2023/09/23 05:13:52;;;;;;;;;;;;;;;18.35;90.34;99465.88;5080845;28;19920;-83
2023/09/23 05:16:18;;;;;;;;;;;;;;;18.32;91.03;99467.47;5074817;28;19920;-83
2023/09/23 05:18:43;;;;;;;;;;;;;;;18.24;91.80;99472.25;5072894;28;19916;-84
2023/09/23 05:21:09;;;;;;;;;;;;;;;18.28;91.50;99471.47;5072716;28;19969;-83
2023/09/23 05:23:35;;;;;;;;;;;;;;;18.40;91.21;99462.69;5071745;28;20326;-83
2023/09/23 05:26:01;;;;;;;;;;;;;;;18.49;90.58;99468.88;5072543;28;19982;-83
2023/09/23 05:28:27;;;;;;;;;;;;;;;18.51;90.71;99474.16;5072132;28;19952;-84
2023/09/23 05:30:53;;;;;;;;;;;;;;;18.44;90.94;99479.72;5072399;28;19951;-84
2023/09/23 05:33:19;;;;;;;;;;;;;;;18.61;89.95;99466.94;5071982;28;20429;-84
2023/09/23 05:35:44;;;;;;;;;;;;;;;18.41;91.30;99472.03;5072332;28;19965;-85
2023/09/23 05:38:09;;;;;;;;;;;;;;;18.56;90.75;99465.28;5072842;28;20322;-83
2023/09/23 05:40:37;;;;;;;;;;;;;;;18.73;89.49;99475.16;5072097;28;20416;-85
2023/09/23 05:43:03;;;;;;;;;;;;;;;18.81;89.61;99481.69;5072271;28;19913;-84
2023/09/23 05:45:29;;;;;;;;;;;;;;;18.87;89.50;99482.97;5071753;28;20413;-86
2023/09/23 05:47:55;;;;;;;;;;;;;;;18.86;89.96;99477.69;5072228;28;19912;-86
2023/09/23 05:50:20;;;;;;;;;;;;;;;18.99;89.89;99486.72;5073354;28;19974;-85
2023/09/23 05:52:46;;;;;;;;;;;;;;;19.16;89.35;99486.06;5071957;28;20306;-86
2023/09/23 05:55:12;;;;;;;;;;;;;;;19.47;86.96;99488.69;5072013;28;19913;-85
2023/09/23 05:57:40;;;;;;;;;;;;;;;19.62;85.41;99490.44;5072995;28;19912;-85
2023/09/23 06:00:10;;;;;;;;;;;;;;;19.69;85.05;99483.97;5071574;28;19916;-84
2023/09/23 06:02:36;;;;;;;;;;;;;;;19.96;83.61;99485.75;5071604;28;20022;-84
2023/09/23 06:05:01;;;;;;;;;;;;;;;20.05;82.38;99491.88;5071584;28;20401;-84
2023/09/23 06:07:28;;;;;;;;;;;;;;;20.20;80.52;99498.41;5072571;28;19916;-84
2023/09/23 06:09:53;;;;;;;;;;;;;;;20.27;80.17;99486.25;5071269;28;20017;-84
2023/09/23 06:12:18;;;;;;;;;;;;;;;20.33;79.71;99487.50;5071406;28;19916;-84
2023/09/23 06:14:44;;;;;;;;;;;;;;;20.14;80.53;99486.63;5071125;28;20037;-84
2023/09/23 06:17:09;;;;;;;;;;;;;;;20.29;80.83;99478.97;5070900;28;19913;-84
2023/09/23 06:19:34;;;;;;;;;;;;;;;20.40;80.45;99481.03;5071065;28;20322;-85
2023/09/23 06:22:00;;;;;;;;;;;;;;;20.65;79.85;99489.59;5071322;28;19913;-85
2023/09/23 06:24:25;;;;;;;;;;;;;;;20.62;79.21;99481.88;5071217;28;20417;-85
2023/09/23 06:26:50;;;;;;;;;;;;;;;20.56;79.87;99480.63;5071197;28;19935;-84
2023/09/23 06:29:16;;;;;;;;;;;;;;;20.77;78.98;99479.88;5071212;28;20308;-84
2023/09/23 06:31:41;;;;;;;;;;;;;;;20.76;78.45;99476.22;5071046;28;19947;-83
2023/09/23 06:34:12;;;;;;;;;;;;;;;21.01;77.89;99481.13;5064659;28;19917;-86
2023/09/23 06:36:37;;;;;;;;;;;;;;;21.08;76.78;99479.50;5067286;28;19928;-83
2023/09/23 06:39:03;;;;;;;;;;;;;;;21.31;75.62;99479.06;5050904;28;19917;-84
2023/09/23 06:41:28;;;;;;;;;;;;;;;21.44;74.80;99473.78;5052427;28;19924;-86
2023/09/23 06:43:53;;;;;;;;;;;;;;;21.57;74.70;99486.34;5051125;28;19935;-85
2023/09/23 06:46:21;;;;;;;;;;;;;;;21.56;71.82;99490.41;5052246;28;19921;-84
2023/09/23 06:48:46;;;;;;;;;;;;;;;21.67;71.44;99486.75;5067703;28;19912;-84
2023/09/23 06:51:11;;;;;;;;;;;;;;;21.86;71.04;99486.25;5050646;28;20028;-84
2023/09/23 06:53:37;;;;;;;;;;;;;;;21.93;70.82;99479.72;5050545;28;19932;-84
2023/09/23 06:56:03;;;;;;;;;;;;;;;22.18;68.65;99487.34;5050678;28;19917;-84
2023/09/23 06:58:28;;;;;;;;;;;;;;;22.43;67.49;99495.78;5050734;28;19928;-85
2023/09/23 07:00:54;;;;;;;;;;;;;;;22.58;66.45;99498.56;5050589;28;19913;-84
2023/09/23 07:03:19;;;;;;;;;;;;;;;22.78;65.81;99501.69;5049300;28;19935;-87
2023/09/23 07:05:45;;;;;;;;;;;;;;;22.86;65.44;99497.56;5034853;28;19917;-83
2023/09/23 07:08:10;;;;;;;;;;;;;;;23.08;63.96;99497.38;5047535;28;19913;-84
2023/09/23 07:10:36;;;;;;;;;;;;;;;23.22;62.39;99504.97;5040576;28;20307;-85
2023/09/23 07:13:04;;;;;;;;;;;;;;;23.52;61.17;99505.56;5050786;28;19912;-85
2023/09/23 07:15:38;;;;;;;;;;;;;;;23.66;60.08;99508.28;5049130;28;19962;-84
2023/09/23 07:18:04;;;;;;;;;;;;;;;23.80;58.67;99507.28;5050806;28;19919;-85
2023/09/23 07:20:30;;;;;;;;;;;;;;;23.84;59.34;99513.78;5050606;28;19917;-83
2023/09/23 07:22:55;;;;;;;;;;;;;;;24.02;59.27;99507.03;5050732;28;20295;-84
2023/09/23 07:25:21;;;;;;;;;;;;;;;24.18;59.87;99515.03;5050598;28;20260;-84
2023/09/23 07:27:46;;;;;;;;;;;;;;;24.17;60.08;99513.44;5050306;28;19924;-85
2023/09/23 07:30:12;;;;;;;;;;;;;;;24.29;59.50;99511.25;5050085;28;19913;-83
2023/09/23 07:32:37;;;;;;;;;;;;;;;24.46;59.11;99518.75;5050370;28;19913;-86
2023/09/23 07:35:03;;;;;;;;;;;;;;;24.60;59.28;99512.03;5050158;28;19971;-84
2023/09/23 07:37:29;;;;;;;;;;;;;;;24.71;58.50;99520.44;5065927;28;20425;-84
2023/09/23 07:39:54;;;;;;;;;;;;;;;24.70;58.14;99513.09;5042581;28;19921;-84
2023/09/23 07:42:19;;;;;;;;;;;;;;;24.75;57.63;99515.50;5047453;28;19913;-87
2023/09/23 07:44:45;;;;;;;;;;;;;;;25.17;57.97;99515.25;5032296;28;20003;-87
2023/09/23 07:47:10;;;;;;;;;;;;;;;25.21;56.18;99518.03;5051213;28;19978;-86
2023/09/23 07:49:35;;;;;;;;;;;;;;;25.23;55.76;99504.91;5051674;28;20397;-87
2023/09/23 07:52:01;;;;;;;;;;;;;;;25.35;55.09;99509.22;5051560;28;19996;-89
2023/09/23 07:54:26;;;;;;;;;;;;;;;25.49;54.61;99515.97;5051448;28;19932;-89
2023/09/23 07:56:51;;;;;;;;;;;;;;;25.57;54.11;99511.69;5064491;28;20050;-88
2023/09/23 07:59:17;;;;;;;;;;;;;;;25.53;53.32;99507.31;5071466;28;19928;-88
2023/09/23 08:01:42;;;;;;;;;;;;;;;25.76;54.57;99509.31;5071019;28;19988;-87
2023/09/23 08:04:07;;;;;;;;;;;;;;;25.95;52.26;99501.19;5070911;28;19912;-87
2023/09/23 08:06:32;;;;;;;;;;;;;;;25.95;52.47;99496.25;5071093;28;20451;-88
2023/09/23 08:08:58;;;;;;;;;;;;;;;26.26;51.94;99496.06;5071249;28;19912;-89
2023/09/23 08:11:24;;;;;;;;;;;;;;;26.52;51.70;99502.03;5071216;28;19920;-89
2023/09/23 08:13:49;;;;;;;;;;;;;;;26.70;50.67;99493.00;5064998;28;19916;-89
2023/09/23 08:16:14;;;;;;;;;;;;;;;26.85;50.06;99493.47;5066621;28;20012;-90
2023/09/23 08:18:40;;;;;;;;;;;;;;;26.90;49.42;99483.53;5047910;28;19956;-91
2023/09/23 08:21:06;;;;;;;;;;;;;;;27.00;50.42;99482.47;5064168;28;19917;-91
2023/09/23 08:23:31;;;;;;;;;;;;;;;27.04;49.31;99491.00;5044314;28;19923;-89
2023/09/23 08:25:57;;;;;;;;;;;;;;;27.21;49.10;99477.44;5047697;28;19917;-88
2023/09/23 08:28:22;;;;;;;;;;;;;;;27.54;48.38;99474.56;5037296;28;20004;-87
2023/09/23 08:30:50;;;;;;;;;;;;;;;27.64;47.57;99480.47;5062506;28;19913;-89
2023/09/23 08:33:15;;;;;;;;;;;;;;;27.71;47.52;99474.50;5065837;28;20424;-88
2023/09/23 08:35:42;;;;;;;;;;;;;;;27.64;46.28;99463.22;5068111;28;19917;-87
2023/09/23 08:38:08;;;;;;;;;;;;;;;27.75;45.54;99469.44;5038445;28;19928;-86
2023/09/23 08:40:34;;;;;;;;;;;;;;;27.98;46.42;99465.50;5034079;28;19921;-89
2023/09/23 08:43:02;;;;;;;;;;;;;;;27.97;46.94;99463.91;5050792;28;19995;-86
2023/09/23 08:45:27;;;;;;;;;;;;;;;28.09;44.80;99459.44;5052640;28;19927;-86
2023/09/23 08:47:53;;;;;;;;;;;;;;;28.29;45.01;99458.47;5034158;28;19997;-86
2023/09/23 08:50:19;;;;;;;;;;;;;;;28.64;44.93;99463.53;5050107;28;19966;-88
2023/09/23 08:52:44;;;;;;;;;;;;;;;28.73;44.89;99461.59;5070603;28;19921;-89
2023/09/23 08:55:10;;;;;;;;;;;;;;;28.82;44.61;99460.09;5058655;28;19913;-85
2023/09/23 08:57:36;;;;;;;;;;;;;;;28.93;43.71;99456.88;5062947;28;19963;-84
2023/09/23 09:00:01;;;;;;;;;;;;;;;28.82;44.98;99454.34;5043498;28;19921;-85
2023/09/23 09:02:26;;;;;;;;;;;;;;;28.85;43.87;99445.59;5057844;28;19921;-86
2023/09/23 09:04:55;;;;;;;;;;;;;;;28.97;43.46;99438.22;5072926;28;19913;-86
2023/09/23 09:07:37;;;;;;;;;;;;;;;29.27;43.12;99441.69;5069222;28;19913;-85
2023/09/23 09:10:03;;;;;;;;;;;;;;;29.37;43.29;99442.59;5049647;28;19924;-86
2023/09/23 09:12:28;;;;;;;;;;;;;;;29.60;42.78;99451.31;5033977;28;19921;-85
2023/09/23 09:14:54;;;;;;;;;;;;;;;29.55;43.04;99444.84;5049295;28;20051;-85
2023/09/23 09:17:20;;;;;;;;;;;;;;;29.75;42.50;99445.81;5065330;28;20406;-86
2023/09/23 09:19:45;;;;;;;;;;;;;;;29.83;42.66;99436.44;5050118;28;19925;-86
2023/09/23 09:22:11;;;;;;;;;;;;;;;29.88;41.08;99442.84;5055581;28;19972;-85
2023/09/23 09:24:36;;;;;;;;;;;;;;;29.89;41.44;99438.69;5066797;28;19921;-86
2023/09/23 09:27:01;;;;;;;;;;;;;;;29.92;40.53;99434.88;5065304;28;19923;-85
2023/09/23 09:29:28;;;;;;;;;;;;;;;30.07;40.71;99433.09;5064078;28;19936;-85
2023/09/23 09:31:56;;;;;;;;;;;;;;;30.23;41.02;99429.19;5062274;28;19921;-85
2023/09/23 09:34:24;;;;;;;;;;;;;;;30.21;40.04;99425.16;5048921;28;20501;-85
2023/09/23 09:36:52;;;;;;;;;;;;;;;30.36;39.86;99431.16;5064942;28;19917;-84
2023/09/23 09:39:21;;;;;;;;;;;;;;;30.28;40.43;99436.38;5033033;28;19925;-83
2023/09/23 09:41:50;;;;;;;;;;;;;;;30.40;39.17;99429.72;5038913;28;19923;-84
2023/09/23 09:44:16;;;;;;;;;;;;;;;30.49;40.87;99428.97;5049470;28;20410;-85
2023/09/23 09:46:43;;;;;;;;;;;;;;;30.50;40.97;99423.97;5043543;28;19913;-84
2023/09/23 09:49:09;;;;;;;;;;;;;;;30.47;40.35;99422.88;5065248;28;19924;-85
2023/09/23 09:51:35;;;;;;;;;;;;;;;30.43;40.70;99422.19;5052957;28;19923;-86
2023/09/23 09:54:02;;;;;;;;;;;;;;;30.56;40.25;99415.50;5067966;28;19921;-85
2023/09/23 09:56:29;;;;;;;;;;;;;;;30.73;39.54;99421.84;5065074;28;19955;-87
2023/09/23 09:58:56;;;;;;;;;;;;;;;30.77;38.27;99411.75;5043312;28;19924;-86
2023/09/23 10:01:22;;;;;;;;;;;;;;;31.02;38.09;99409.88;5048179;28;19923;-88
2023/09/23 10:03:50;;;;;;;;;;;;;;;31.18;37.11;99407.97;5053017;28;19999;-87
2023/09/23 10:06:18;;;;;;;;;;;;;;;31.35;37.36;99405.59;5039444;28;20323;-86
2023/09/23 10:08:46;;;;;;;;;;;;;;;31.56;38.94;99395.19;5062045;28;19924;-87
2023/09/23 10:11:13;;;;;;;;;;;;;;;31.29;38.32;99391.00;5068267;28;20394;-87
2023/09/23 10:13:38;;;;;;;;;;;;;;;31.24;37.32;99394.53;5051784;28;20050;-86
2023/09/23 10:16:04;;;;;;;;;;;;;;;31.48;37.86;99386.00;5051668;28;20401;-89
2023/09/23 10:18:37;;;;;;;;;;;;;;;31.40;38.06;99387.66;5068250;28;20525;-87
2023/09/23 10:21:03;;;;;;;;;;;;;;;31.41;37.99;99382.66;5068350;28;19912;-88
2023/09/23 10:23:32;;;;;;;;;;;;;;;31.73;37.11;99384.06;5065352;28;19924;-88
2023/09/23 10:25:58;;;;;;;;;;;;;;;32.07;37.08;99373.41;5041601;28;19951;-87
2023/09/23 10:28:25;;;;;;;;;;;;;;;31.80;36.92;99368.53;5045878;28;20333;-88
2023/09/23 10:31:04;;;;;;;;;;;;;;;31.80;36.47;99362.75;5062408;28;20298;-87
2023/09/23 10:33:30;;;;;;;;;;;;;;;32.03;37.53;99366.19;5045130;28;20015;-88
2023/09/23 10:35:59;;;;;;;;;;;;;;;31.79;35.34;99366.88;5048990;28;19970;-87
2023/09/23 10:38:26;;;;;;;;;;;;;;;32.25;35.43;99351.50;5047356;28;19917;-89
2023/09/23 10:40:53;;;;;;;;;;;;;;;32.47;34.85;99359.91;5037827;28;19912;-90
2023/09/23 10:43:22;;;;;;;;;;;;;;;32.63;35.17;99361.59;5034954;28;19947;-89
2023/09/23 10:45:48;;;;;;;;;;;;;;;32.47;35.07;99347.56;5049999;28;20462;-89
2023/09/23 10:48:14;;;;;;;;;;;;;;;32.56;35.25;99350.38;5065728;28;19960;-90
2023/09/23 10:50:40;;;;;;;;;;;;;;;32.70;34.51;99353.84;5051059;28;19917;-89
2023/09/23 10:53:06;;;;;;;;;;;;;;;32.50;33.98;99337.88;5051295;28;20454;-89
2023/09/23 10:55:33;;;;;;;;;;;;;;;32.49;34.86;99330.50;5051435;28;20011;-87
2023/09/23 10:57:58;;;;;;;;;;;;;;;32.75;33.79;99330.78;5050302;28;20033;-87
2023/09/23 11:00:25;;;;;;;;;;;;;;;32.78;33.94;99326.13;5057692;28;20399;-87
2023/09/23 11:02:54;;;;;;;;;;;;;;;33.06;33.84;99323.03;5038777;28;20000;-88
2023/09/23 11:05:24;;;;;;;;;;;;;;;33.21;33.39;99328.09;5048728;28;20306;-88
2023/09/23 11:07:49;;;;;;;;;;;;;;;32.85;32.64;99310.47;5067703;28;19965;-89
2023/09/23 11:10:17;;;;;;;;;;;;;;;32.58;33.85;99321.78;5052101;28;19944;-86
2023/09/23 11:12:45;;;;;;;;;;;;;;;32.86;33.13;99309.97;5050301;28;19913;-86
2023/09/23 11:15:12;;;;;;;;;;;;;;;33.21;32.72;99311.47;5050353;28;19940;-88
2023/09/23 11:17:39;;;;;;;;;;;;;;;33.41;32.38;99310.81;5050972;28;20313;-88
2023/09/23 11:20:08;;;;;;;;;;;;;;;33.49;32.38;99298.84;5067360;28;19928;-88
2023/09/23 11:22:34;;;;;;;;;;;;;;;33.49;31.54;99295.97;5055179;28;19912;-87
2023/09/23 11:24:59;;;;;;;;;;;;;;;33.57;32.25;99294.28;5047683;28;20011;-86
2023/09/23 11:27:25;;;;;;;;;;;;;;;33.33;32.31;99289.34;5048239;28;19921;-86
2023/09/23 11:29:51;;;;;;;;;;;;;;;33.50;33.08;99280.97;5053584;28;20272;-87
2023/09/23 11:32:21;;;;;;;;;;;;;;;33.60;31.62;99281.66;5059165;28;20375;-87
2023/09/23 11:34:48;;;;;;;;;;;;;;;33.74;31.58;99274.28;5060198;28;20011;-87
2023/09/23 11:37:17;;;;;;;;;;;;;;;33.35;32.75;99274.31;5049809;28;19924;-87
2023/09/23 11:39:42;;;;;;;;;;;;;;;33.50;30.87;99271.47;5047069;28;19925;-86
2023/09/23 11:42:07;;;;;;;;;;;;;;;33.32;31.07;99271.13;5050667;28;19917;-85
2023/09/23 11:44:34;;;;;;;;;;;;;;;33.39;31.71;99269.16;5050515;28;20392;-88
2023/09/23 11:47:00;;;;;;;;;;;;;;;33.55;31.42;99262.88;5061667;28;20391;-86
2023/09/23 11:49:25;;;;;;;;;;;;;;;33.74;31.30;99260.56;5038899;28;20050;-88
2023/09/23 11:51:51;;;;;;;;;;;;;;;33.55;31.36;99262.09;5054530;28;19962;-86
2023/09/23 11:54:16;;;;;;;;;;;;;;;33.77;31.74;99252.16;5050960;28;19928;-86
2023/09/23 11:56:42;;;;;;;;;;;;;;;33.89;30.57;99240.25;5055242;28;19932;-88
2023/09/23 11:59:09;;;;;;;;;;;;;;;34.04;30.83;99235.75;5068122;28;19925;-88
2023/09/23 12:01:35;;;;;;;;;;;;;;;34.23;30.73;99237.06;5059416;28;19959;-87
2023/09/23 12:04:00;;;;;;;;;;;;;;;33.87;30.25;99236.22;5053271;28;20382;-87
2023/09/23 12:06:25;;;;;;;;;;;;;;;33.95;31.22;99234.53;5053366;28;19964;-87
2023/09/23 12:08:54;;;;;;;;;;;;;;;34.06;30.53;99230.22;5054450;28;19917;-88
2023/09/23 12:11:21;;;;;;;;;;;;;;;34.18;31.25;99223.28;5070703;28;19921;-86
2023/09/23 12:13:47;;;;;;;;;;;;;;;34.28;31.52;99221.03;5071283;28;20497;-88
2023/09/23 12:16:12;;;;;;;;;;;;;;;34.29;31.70;99226.34;5070670;28;19956;-87
2023/09/23 12:18:37;;;;;;;;;;;;;;;34.22;30.66;99220.97;5059910;28;19924;-85
2023/09/23 12:21:03;;;;;;;;;;;;;;;34.34;30.99;99218.22;5037186;28;19917;-87
2023/09/23 12:23:29;;;;;;;;;;;;;;;34.15;30.89;99213.47;5045328;28;19924;-86
2023/09/23 12:25:55;;;;;;;;;;;;;;;33.94;31.56;99215.53;5069713;28;19917;-88
2023/09/23 12:28:20;;;;;;;;;;;;;;;34.01;31.88;99209.31;5060211;28;20115;-88
2023/09/23 12:30:45;;;;;;;;;;;;;;;34.06;31.48;99202.00;5069752;28;19924;-85
2023/09/23 12:33:11;;;;;;;;;;;;;;;34.44;31.84;99193.53;5051189;28;19997;-87
2023/09/23 12:35:36;;;;;;;;;;;;;;;34.22;31.68;99200.66;5048571;28;19917;-86
2023/09/23 12:38:01;;;;;;;;;;;;;;;34.22;32.03;99194.84;5069218;28;19923;-86
2023/09/23 12:40:27;;;;;;;;;;;;;;;34.20;32.69;99193.75;5051551;28;19929;-86
2023/09/23 12:42:52;;;;;;;;;;;;;;;34.29;32.27;99199.41;5048595;28;19948;-87
2023/09/23 12:45:18;;;;;;;;;;;;;;;34.26;32.34;99188.81;5049483;28;19917;-86
2023/09/23 12:47:46;;;;;;;;;;;;;;;34.22;32.78;99183.25;5048787;28;19917;-86